Minneapolis, Minnesota
Traffic Map
Current Weather Conditions
Minneapolis, Minnesota
Few Clouds
Few Clouds
10°
Feels Like: 10°
Wind Chill: 10° Ceiling: Unl
Heat Index: 10° Visibility: 10mi
Dew Point: Wind: 13mph
Humidity: 59% Direction: 70° (ENE)
Pressure: 29.86in Gusts: 0mph
Raw Report DataKMSP 251553Z 07011KT 10SM FEW046 10/02 A2986 RMK AO2 SLP115 T01000022
Traffic Incident Summary
Active as of:
Severity:
Category:
InformationThere was an issue retrieving the traffic information for this location. Please try a different location or try again shortly.
Advertisements
Track Severe Weather on mobile